Time;durP1;ratioP1;P1;durP2;ratioP2;P2;SDS_P1;SDS_P2;PMS_P1;PMS_P2;Temp;Humidity;BMP_temperature;BMP_pressure;BME280_temperature;BME280_humidity;BME280_pressure;Samples;Min_cycle;Max_cycle;Signal;HPM_P1;HPM_P2
2023/12/04 00:01:46;;;;;;;41.95;26.08;;;0.50;99.90;;;;;;7380123;19;20062;-59
2023/12/04 00:04:12;;;;;;;42.00;24.52;;;0.50;99.90;;;;;;7372859;19;20107;-59
2023/12/04 00:06:39;;;;;;;46.92;25.85;;;0.50;99.90;;;;;;7378403;19;20019;-59
2023/12/04 00:09:05;;;;;;;37.35;21.23;;;0.50;99.90;;;;;;7379096;19;20011;-59
2023/12/04 00:11:32;;;;;;;43.80;27.67;;;0.50;99.90;;;;;;7376592;19;20027;-59
2023/12/04 00:13:59;;;;;;;39.80;25.13;;;0.50;99.90;;;;;;7378442;19;20023;-60
2023/12/04 00:16:26;;;;;;;47.53;29.35;;;0.50;99.90;;;;;;7374875;19;20022;-59
2023/12/04 00:18:52;;;;;;;49.38;26.05;;;0.50;99.90;;;;;;7376632;19;20177;-59
2023/12/04 00:21:18;;;;;;;47.72;30.67;;;0.50;99.90;;;;;;7377963;19;20025;-59
2023/12/04 00:23:44;;;;;;;47.60;27.88;;;0.50;99.90;;;;;;7383000;19;20022;-62
2023/12/04 00:26:12;;;;;;;51.92;30.92;;;0.50;99.90;;;;;;7379583;19;20022;-62
2023/12/04 00:28:39;;;;;;;48.95;28.52;;;0.50;99.90;;;;;;7379124;19;20022;-62
2023/12/04 00:31:05;;;;;;;50.33;29.48;;;0.50;99.90;;;;;;7380823;19;20014;-62
2023/12/04 00:33:32;;;;;;;47.92;26.95;;;0.50;99.90;;;;;;7375789;19;20562;-62
2023/12/04 00:35:59;;;;;;;50.15;28.20;;;0.50;99.90;;;;;;7379473;19;20041;-62
2023/12/04 00:38:25;;;;;;;41.50;24.40;;;0.50;99.90;;;;;;7376894;19;20478;-62
2023/12/04 00:40:52;;;;;;;52.42;29.80;;;0.50;99.90;;;;;;7377691;19;20858;-62
2023/12/04 00:43:18;;;;;;;44.03;26.77;;;0.50;99.90;;;;;;7376069;19;20047;-62
2023/12/04 00:45:44;;;;;;;40.03;24.55;;;0.50;99.90;;;;;;7376656;19;20025;-62
2023/12/04 00:48:10;;;;;;;50.67;30.73;;;0.50;99.90;;;;;;7375685;19;20029;-62
2023/12/04 00:50:37;;;;;;;49.85;29.27;;;0.50;99.90;;;;;;7376094;19;20022;-62
2023/12/04 00:53:04;;;;;;;49.95;31.15;;;0.60;99.90;;;;;;7378251;19;20024;-62
2023/12/04 00:55:31;;;;;;;47.53;25.13;;;0.60;99.90;;;;;;7376375;19;20624;-62
2023/12/04 00:57:57;;;;;;;51.08;31.33;;;0.60;99.90;;;;;;7375961;19;20725;-62
2023/12/04 01:00:23;;;;;;;48.88;29.63;;;0.60;99.90;;;;;;7378944;19;20018;-62
2023/12/04 01:02:49;;;;;;;49.20;30.42;;;0.60;99.90;;;;;;7376975;19;20014;-61
2023/12/04 01:05:16;;;;;;;45.55;26.77;;;0.60;99.90;;;;;;7374488;19;20052;-62
2023/12/04 01:07:43;;;;;;;48.40;30.10;;;0.60;99.90;;;;;;7375039;19;20029;-62
2023/12/04 01:10:09;;;;;;;50.40;28.40;;;0.50;99.90;;;;;;7375960;19;20082;-62
2023/12/04 01:12:35;;;;;;;45.90;26.65;;;0.60;99.90;;;;;;7374406;19;20010;-59
2023/12/04 01:15:03;;;;;;;48.13;29.58;;;0.60;99.90;;;;;;7373895;19;20030;-59
2023/12/04 01:17:30;;;;;;;47.05;25.92;;;0.60;99.90;;;;;;7377152;19;20391;-59
2023/12/04 01:19:57;;;;;;;49.35;27.65;;;0.60;99.90;;;;;;7377650;19;20437;-59
2023/12/04 01:22:23;;;;;;;46.30;27.02;;;0.60;99.90;;;;;;7376952;19;20026;-59
2023/12/04 01:24:50;;;;;;;51.28;28.58;;;0.60;99.90;;;;;;7375866;19;20864;-59
2023/12/04 01:27:16;;;;;;;50.67;28.88;;;0.60;99.90;;;;;;7375902;19;20031;-59
2023/12/04 01:30:02;;;;;;;43.03;27.33;;;0.60;99.90;;;;;;7371712;19;20014;-60
2023/12/04 01:32:29;;;;;;;46.50;28.75;;;0.50;99.90;;;;;;7375680;19;20022;-59
2023/12/04 01:34:55;;;;;;;52.10;29.67;;;0.60;99.90;;;;;;7375981;19;20018;-59
2023/12/04 01:37:21;;;;;;;42.70;24.27;;;0.60;99.90;;;;;;7374719;19;20047;-59
2023/12/04 01:39:47;;;;;;;47.10;25.90;;;0.60;99.90;;;;;;7375524;19;20039;-59
2023/12/04 01:42:14;;;;;;;44.30;25.45;;;0.50;99.90;;;;;;7375610;19;20019;-61
2023/12/04 01:44:40;;;;;;;45.67;27.23;;;0.60;99.90;;;;;;7376431;19;20035;-62
2023/12/04 01:47:07;;;;;;;46.38;27.25;;;0.60;99.90;;;;;;7377064;19;20022;-62
2023/12/04 01:49:37;;;;;;;44.95;27.30;;;0.60;99.90;;;;;;7375281;19;20029;-62
2023/12/04 01:52:04;;;;;;;44.92;28.13;;;0.60;99.90;;;;;;7373214;19;20490;-61
2023/12/04 01:54:31;;;;;;;43.60;28.55;;;0.60;99.90;;;;;;7376339;19;20587;-62
2023/12/04 01:56:58;;;;;;;44.17;27.05;;;0.60;99.90;;;;;;7372122;19;20018;-62
2023/12/04 01:59:25;;;;;;;43.53;24.67;;;0.60;99.90;;;;;;7374278;19;20495;-62
2023/12/04 02:01:52;;;;;;;47.25;29.38;;;0.70;99.90;;;;;;7374397;19;20018;-63
2023/12/04 02:04:19;;;;;;;44.63;26.73;;;0.60;99.90;;;;;;7375526;19;20055;-63
2023/12/04 02:06:45;;;;;;;42.28;23.95;;;0.60;99.90;;;;;;7370312;19;20978;-63
2023/12/04 02:09:13;;;;;;;48.88;29.17;;;0.60;99.90;;;;;;7373374;19;20023;-63
2023/12/04 02:11:40;;;;;;;43.63;25.80;;;0.60;99.90;;;;;;7377193;19;20029;-63
2023/12/04 02:14:06;;;;;;;47.00;26.95;;;0.60;99.90;;;;;;7374308;19;20018;-62
2023/12/04 02:16:41;;;;;;;43.72;24.73;;;0.60;99.90;;;;;;7373135;19;20857;-63
2023/12/04 02:19:14;;;;;;;43.80;25.73;;;0.60;99.90;;;;;;7373508;19;20015;-63
2023/12/04 02:21:41;;;;;;;45.90;26.23;;;0.60;99.90;;;;;;7376086;19;20019;-63
2023/12/04 02:24:08;;;;;;;40.33;25.30;;;0.60;99.90;;;;;;7373654;19;20096;-63
2023/12/04 02:26:45;;;;;;;47.67;28.55;;;0.70;99.90;;;;;;7373700;19;20107;-63
2023/12/04 02:29:19;;;;;;;42.28;25.30;;;0.70;99.90;;;;;;7372264;19;20054;-63
2023/12/04 02:31:46;;;;;;;45.47;25.40;;;0.70;99.90;;;;;;7373936;19;20912;-63
2023/12/04 02:34:15;;;;;;;43.90;25.55;;;0.70;99.90;;;;;;7372833;19;20026;-63
2023/12/04 02:36:43;;;;;;;43.13;23.63;;;0.70;99.90;;;;;;7373576;19;20115;-63
2023/12/04 02:39:29;;;;;;;45.05;26.38;;;0.70;99.90;;;;;;7372833;19;20018;-63
2023/12/04 02:41:57;;;;;;;42.67;25.48;;;0.70;99.90;;;;;;7371046;19;20025;-63
2023/12/04 02:44:24;;;;;;;45.03;25.02;;;0.70;99.90;;;;;;7374895;19;20039;-60
2023/12/04 02:46:51;;;;;;;43.53;26.20;;;0.70;99.90;;;;;;7372391;19;20047;-60
2023/12/04 02:49:18;;;;;;;42.50;26.20;;;0.70;99.90;;;;;;7372742;19;20051;-60
2023/12/04 02:51:44;;;;;;;42.55;26.30;;;0.70;99.90;;;;;;7374082;19;20014;-63
2023/12/04 02:54:30;;;;;;;39.78;24.67;;;0.80;99.90;;;;;;7370748;19;20034;-61
2023/12/04 02:56:58;;;;;;;40.08;25.20;;;0.80;99.90;;;;;;7373705;19;20505;-62
2023/12/04 02:59:24;;;;;;;42.97;25.40;;;0.80;99.90;;;;;;7374425;19;20022;-62
2023/12/04 03:01:50;;;;;;;39.47;24.67;;;0.80;99.90;;;;;;7374372;19;20034;-62
2023/12/04 03:04:19;;;;;;;40.10;26.08;;;0.80;99.90;;;;;;7376018;19;20030;-62
2023/12/04 03:06:45;;;;;;;38.63;25.30;;;0.80;99.90;;;;;;7375094;19;20022;-63
2023/12/04 03:09:12;;;;;;;43.90;26.50;;;0.80;99.90;;;;;;7375792;19;20023;-62
2023/12/04 03:11:42;;;;;;;41.70;24.08;;;0.80;99.90;;;;;;7374170;19;20075;-62
2023/12/04 03:14:08;;;;;;;41.03;24.65;;;0.80;99.90;;;;;;7374242;19;20022;-63
2023/12/04 03:16:34;;;;;;;39.28;24.15;;;0.80;99.90;;;;;;7375500;19;20023;-63
2023/12/04 03:19:00;;;;;;;42.28;26.05;;;0.80;99.90;;;;;;7375851;19;20106;-60
2023/12/04 03:21:28;;;;;;;38.60;23.58;;;0.80;99.90;;;;;;7375214;19;20026;-60
2023/12/04 03:23:55;;;;;;;37.35;23.55;;;0.80;99.90;;;;;;7375267;19;20022;-62
2023/12/04 03:26:21;;;;;;;36.15;23.45;;;0.80;99.90;;;;;;7372691;19;20026;-64
2023/12/04 03:28:47;;;;;;;37.53;22.88;;;0.80;99.90;;;;;;7374237;19;20114;-62
2023/12/04 03:31:14;;;;;;;37.53;22.70;;;0.80;99.90;;;;;;7373625;19;20081;-62
2023/12/04 03:33:40;;;;;;;36.50;22.05;;;0.80;99.90;;;;;;7374596;19;20015;-63
2023/12/04 03:36:07;;;;;;;36.40;21.52;;;0.80;99.90;;;;;;7373313;19;20106;-62
2023/12/04 03:38:33;;;;;;;35.75;22.58;;;0.80;99.90;;;;;;7371959;19;20014;-62
2023/12/04 03:40:59;;;;;;;36.50;23.90;;;0.80;99.90;;;;;;7372672;19;20018;-62
2023/12/04 03:43:25;;;;;;;35.88;22.10;;;0.70;99.90;;;;;;7372378;19;20022;-62
2023/12/04 03:45:52;;;;;;;40.35;24.45;;;0.80;99.90;;;;;;7375029;19;20082;-62
2023/12/04 03:48:18;;;;;;;34.47;19.75;;;0.80;99.90;;;;;;7373386;19;20015;-62
2023/12/04 03:50:44;;;;;;;41.17;24.45;;;0.80;99.90;;;;;;7370753;19;20018;-62
2023/12/04 03:53:10;;;;;;;35.47;21.00;;;0.70;99.90;;;;;;7369537;19;20030;-62
2023/12/04 03:55:39;;;;;;;34.70;21.67;;;0.70;99.90;;;;;;7375611;19;20459;-62
2023/12/04 03:58:07;;;;;;;36.60;22.85;;;0.70;99.90;;;;;;7373021;19;20090;-62
2023/12/04 04:00:33;;;;;;;30.95;17.90;;;0.70;99.90;;;;;;7373164;19;20592;-62
2023/12/04 04:03:00;;;;;;;37.92;22.55;;;0.70;99.90;;;;;;7373301;19;20027;-62
2023/12/04 04:05:30;;;;;;;34.53;22.27;;;0.70;99.90;;;;;;7371978;19;20015;-62
2023/12/04 04:07:57;;;;;;;37.28;22.95;;;0.70;99.90;;;;;;7371907;19;20019;-62
2023/12/04 04:10:24;;;;;;;35.13;22.65;;;0.80;99.90;;;;;;7376507;19;20026;-62
2023/12/04 04:12:50;;;;;;;38.42;22.55;;;0.80;99.90;;;;;;7379133;19;20014;-62
2023/12/04 04:15:16;;;;;;;35.20;21.98;;;0.80;99.90;;;;;;7373898;19;20023;-62
2023/12/04 04:17:42;;;;;;;34.10;20.85;;;0.70;99.90;;;;;;7372516;19;20025;-61
2023/12/04 04:20:10;;;;;;;32.30;19.90;;;0.80;99.90;;;;;;7374472;19;20030;-62
2023/12/04 04:22:37;;;;;;;35.75;20.48;;;0.80;99.90;;;;;;7373688;19;20102;-62
2023/12/04 04:25:07;;;;;;;36.33;19.48;;;0.80;99.90;;;;;;7370357;19;20019;-62
2023/12/04 04:27:33;;;;;;;34.30;19.58;;;0.80;99.90;;;;;;7370204;19;20019;-62
2023/12/04 04:30:20;;;;;;;36.00;21.08;;;0.80;99.90;;;;;;7368540;19;20025;-62
2023/12/04 04:32:46;;;;;;;36.50;22.00;;;0.80;99.90;;;;;;7375806;19;20123;-59
2023/12/04 04:35:13;;;;;;;37.38;21.95;;;0.80;99.90;;;;;;7374999;19;20031;-60
2023/12/04 04:37:39;;;;;;;35.50;22.35;;;0.70;99.90;;;;;;7375390;19;20031;-60
2023/12/04 04:40:05;;;;;;;34.78;20.80;;;0.80;99.90;;;;;;7376148;19;20482;-59
2023/12/04 04:42:32;;;;;;;35.15;21.77;;;0.80;99.90;;;;;;7373916;19;20033;-59
2023/12/04 04:44:58;;;;;;;37.03;21.45;;;0.80;99.90;;;;;;7374300;19;20026;-59
2023/12/04 04:47:24;;;;;;;34.17;21.50;;;0.80;99.90;;;;;;7373114;19;20022;-59
2023/12/04 04:49:51;;;;;;;37.22;20.60;;;0.80;99.90;;;;;;7374969;19;20107;-59
2023/12/04 04:52:17;;;;;;;33.50;21.13;;;0.80;99.90;;;;;;7371930;19;20026;-59
2023/12/04 04:54:43;;;;;;;33.00;19.60;;;0.80;99.90;;;;;;7371270;19;20478;-62
2023/12/04 04:57:09;;;;;;;33.70;21.15;;;0.80;99.90;;;;;;7371411;19;20014;-62
2023/12/04 04:59:36;;;;;;;33.50;21.77;;;0.80;99.90;;;;;;7371618;19;20030;-61
2023/12/04 05:02:02;;;;;;;32.80;20.50;;;0.80;99.90;;;;;;7372663;19;20025;-62
2023/12/04 05:04:29;;;;;;;32.65;19.42;;;0.80;99.90;;;;;;7372427;19;20022;-62
2023/12/04 05:06:58;;;;;;;32.88;19.05;;;0.80;99.90;;;;;;7374555;19;20030;-62
2023/12/04 05:09:24;;;;;;;34.75;20.85;;;0.80;99.90;;;;;;7371213;19;20873;-62
2023/12/04 05:11:53;;;;;;;32.15;20.08;;;0.80;99.90;;;;;;7374096;19;20482;-61
2023/12/04 05:14:20;;;;;;;31.40;20.40;;;0.80;99.90;;;;;;7369831;19;20045;-62
2023/12/04 05:16:46;;;;;;;29.05;18.88;;;0.80;99.90;;;;;;7374630;19;20378;-62
2023/12/04 05:19:12;;;;;;;31.58;20.63;;;0.80;99.90;;;;;;7373193;19;20022;-62
2023/12/04 05:21:38;;;;;;;32.92;20.48;;;0.80;99.90;;;;;;7375340;19;20018;-62
2023/12/04 05:24:04;;;;;;;31.05;20.42;;;0.80;99.90;;;;;;7371728;19;20022;-62
2023/12/04 05:26:30;;;;;;;34.53;21.27;;;0.80;99.90;;;;;;7370325;19;20056;-62
2023/12/04 05:29:17;;;;;;;36.15;20.15;;;0.80;99.90;;;;;;7367318;19;20018;-59
2023/12/04 05:31:43;;;;;;;32.25;18.88;;;0.80;99.90;;;;;;7375902;19;20035;-59
2023/12/04 05:34:09;;;;;;;31.88;21.02;;;0.80;99.90;;;;;;7370400;19;20022;-60
2023/12/04 05:36:35;;;;;;;35.20;22.00;;;0.90;99.90;;;;;;7371409;19;20015;-59
2023/12/04 05:39:01;;;;;;;32.88;21.10;;;0.90;99.90;;;;;;7376647;19;20018;-59
2023/12/04 05:41:27;;;;;;;28.77;19.08;;;0.90;99.90;;;;;;7373305;19;20108;-59
2023/12/04 05:43:54;;;;;;;32.10;19.75;;;0.90;99.90;;;;;;7376702;19;20040;-62
2023/12/04 05:46:23;;;;;;;34.67;19.95;;;0.90;99.90;;;;;;7373662;19;20033;-62
2023/12/04 05:48:49;;;;;;;31.75;19.52;;;0.90;99.90;;;;;;7373290;19;20030;-62
2023/12/04 05:51:15;;;;;;;29.25;19.58;;;0.90;99.90;;;;;;7376711;19;20793;-62
2023/12/04 05:53:42;;;;;;;29.35;18.30;;;0.90;99.90;;;;;;7376619;19;20022;-62
2023/12/04 05:56:11;;;;;;;31.45;20.13;;;0.90;99.90;;;;;;7370771;19;20011;-59
2023/12/04 05:58:37;;;;;;;28.38;19.45;;;0.90;99.90;;;;;;7370803;19;20022;-59
2023/12/04 06:01:06;;;;;;;30.77;19.23;;;0.90;99.90;;;;;;7373401;19;20098;-59
2023/12/04 06:03:32;;;;;;;28.90;20.23;;;0.90;99.90;;;;;;7374569;19;20010;-59
2023/12/04 06:05:59;;;;;;;27.58;18.83;;;0.90;99.90;;;;;;7370935;19;20025;-59
2023/12/04 06:08:25;;;;;;;28.63;18.23;;;0.90;99.90;;;;;;7371729;19;20026;-59
2023/12/04 06:10:51;;;;;;;29.88;19.80;;;0.80;99.90;;;;;;7370575;19;20944;-59
2023/12/04 06:13:17;;;;;;;30.88;18.67;;;0.90;99.90;;;;;;7369395;19;20112;-61
2023/12/04 06:15:44;;;;;;;28.83;19.65;;;0.90;99.90;;;;;;7367833;19;20057;-62
2023/12/04 06:18:10;;;;;;;30.73;18.55;;;0.90;99.90;;;;;;7373885;19;21189;-62
2023/12/04 06:20:36;;;;;;;26.77;18.10;;;0.80;99.90;;;;;;7372364;19;20032;-61
2023/12/04 06:23:02;;;;;;;26.92;18.38;;;0.90;99.90;;;;;;7373733;19;20482;-61
2023/12/04 06:25:29;;;;;;;24.20;16.13;;;0.80;99.90;;;;;;7373155;19;20018;-62
2023/12/04 06:27:56;;;;;;;26.65;17.05;;;0.80;99.90;;;;;;7374924;19;20029;-61
2023/12/04 06:30:22;;;;;;;26.20;16.85;;;0.80;99.90;;;;;;7370519;19;20086;-59
2023/12/04 06:32:49;;;;;;;28.70;18.85;;;0.80;99.90;;;;;;7374416;19;20487;-59
2023/12/04 06:35:15;;;;;;;26.67;17.45;;;0.80;99.90;;;;;;7368007;19;20019;-61
2023/12/04 06:37:44;;;;;;;28.73;16.75;;;0.70;99.90;;;;;;7373713;19;20025;-61
2023/12/04 06:40:12;;;;;;;33.45;20.10;;;0.70;99.90;;;;;;7372143;19;20047;-60
2023/12/04 06:42:38;;;;;;;27.80;17.60;;;0.70;99.90;;;;;;7372544;19;20035;-62
2023/12/04 06:45:05;;;;;;;28.20;18.60;;;0.70;99.90;;;;;;7372083;19;20707;-63
2023/12/04 06:47:33;;;;;;;31.02;19.25;;;0.70;99.90;;;;;;7372889;19;20011;-65
2023/12/04 06:50:00;;;;;;;26.35;17.63;;;0.70;99.90;;;;;;7376183;19;20564;-64
2023/12/04 06:52:46;;;;;;;30.58;18.65;;;0.70;99.90;;;;;;7374652;19;20018;-61
2023/12/04 06:55:13;;;;;;;26.17;17.88;;;0.70;99.90;;;;;;7367053;19;20055;-63
2023/12/04 06:57:39;;;;;;;27.77;17.23;;;0.70;99.90;;;;;;7373871;19;20497;-63
2023/12/04 07:00:12;;;;;;;29.75;18.10;;;0.70;99.90;;;;;;7372471;19;20015;-58
2023/12/04 07:02:39;;;;;;;27.77;16.20;;;0.70;99.90;;;;;;7375882;19;20022;-61
2023/12/04 07:05:06;;;;;;;27.45;18.33;;;0.70;99.90;;;;;;7373004;19;20015;-61
2023/12/04 07:07:32;;;;;;;24.15;18.75;;;0.70;99.90;;;;;;7373120;19;20413;-61
2023/12/04 07:09:58;;;;;;;26.30;18.17;;;0.70;99.90;;;;;;7370679;19;20021;-61
2023/12/04 07:12:25;;;;;;;24.70;16.63;;;0.70;99.90;;;;;;7371386;19;20338;-61
2023/12/04 07:14:51;;;;;;;20.45;14.20;;;0.70;99.90;;;;;;7370057;19;20018;-61
2023/12/04 07:17:17;;;;;;;26.67;16.98;;;0.70;99.90;;;;;;7372030;19;20038;-61
2023/12/04 07:19:44;;;;;;;25.52;16.02;;;0.70;99.90;;;;;;7372496;19;20019;-61
2023/12/04 07:22:10;;;;;;;27.92;17.90;;;0.70;99.90;;;;;;7373693;19;20061;-60
2023/12/04 07:24:36;;;;;;;23.48;15.20;;;0.70;99.90;;;;;;7370628;19;20086;-61
2023/12/04 07:27:04;;;;;;;23.48;16.58;;;0.70;99.90;;;;;;7370365;19;20038;-61
2023/12/04 07:29:30;;;;;;;24.58;15.32;;;0.70;99.90;;;;;;7367863;19;20022;-60
2023/12/04 07:31:56;;;;;;;25.05;17.00;;;0.70;99.90;;;;;;7371709;19;20015;-62
2023/12/04 07:34:22;;;;;;;22.92;15.23;;;0.70;99.90;;;;;;7368234;19;20116;-58
2023/12/04 07:36:49;;;;;;;25.73;16.63;;;0.70;99.90;;;;;;7371474;19;20019;-58
2023/12/04 07:39:15;;;;;;;22.42;15.63;;;0.70;99.90;;;;;;7372317;19;20015;-59
2023/12/04 07:41:44;;;;;;;24.40;15.38;;;0.70;99.90;;;;;;7369576;19;20017;-58
2023/12/04 07:44:10;;;;;;;25.10;16.23;;;0.80;99.90;;;;;;7376739;19;20022;-60
2023/12/04 07:46:40;;;;;;;24.30;14.93;;;0.80;99.90;;;;;;7374348;19;21236;-61
2023/12/04 07:49:06;;;;;;;24.88;15.75;;;0.80;99.90;;;;;;7379800;19;20474;-60
2023/12/04 07:51:32;;;;;;;24.02;15.60;;;0.80;99.90;;;;;;7380770;19;20037;-61
2023/12/04 07:53:59;;;;;;;23.00;14.52;;;0.80;99.90;;;;;;7378725;19;20034;-61
2023/12/04 07:56:25;;;;;;;23.75;14.45;;;0.80;99.90;;;;;;7379372;19;20366;-61
2023/12/04 07:58:51;;;;;;;23.08;15.27;;;0.80;99.90;;;;;;7379349;19;20018;-61
2023/12/04 08:01:18;;;;;;;21.30;13.68;;;0.80;99.90;;;;;;7379542;19;20109;-61
2023/12/04 08:03:45;;;;;;;23.73;14.70;;;0.90;99.90;;;;;;7380238;19;20021;-59
2023/12/04 08:06:12;;;;;;;23.38;13.65;;;0.90;99.90;;;;;;7378443;19;20022;-59
2023/12/04 08:08:39;;;;;;;24.00;13.70;;;0.90;99.90;;;;;;7379610;19;20066;-59
2023/12/04 08:11:05;;;;;;;24.02;15.45;;;0.90;99.90;;;;;;7381157;19;20017;-61
2023/12/04 08:13:32;;;;;;;22.38;15.18;;;0.90;99.90;;;;;;7378860;19;20021;-61
2023/12/04 08:15:58;;;;;;;23.55;14.48;;;0.90;99.90;;;;;;7377955;19;20584;-61
2023/12/04 08:18:24;;;;;;;22.40;14.65;;;0.90;99.90;;;;;;7377638;19;20021;-61
2023/12/04 08:20:50;;;;;;;23.52;14.45;;;0.90;99.90;;;;;;7377519;19;20813;-59
2023/12/04 08:23:17;;;;;;;20.77;13.95;;;0.90;99.90;;;;;;7379880;19;20118;-59
2023/12/04 08:25:43;;;;;;;21.52;14.63;;;0.90;99.90;;;;;;7377923;19;20388;-59
2023/12/04 08:28:09;;;;;;;21.05;13.52;;;0.90;99.90;;;;;;7379271;19;20015;-59
2023/12/04 08:30:36;;;;;;;21.33;14.63;;;1.00;99.90;;;;;;7374995;19;20014;-59
2023/12/04 08:33:02;;;;;;;20.55;13.45;;;0.90;99.90;;;;;;7378951;19;20026;-60
2023/12/04 08:35:29;;;;;;;21.83;14.35;;;1.00;99.90;;;;;;7376119;19;20129;-59
2023/12/04 08:37:55;;;;;;;21.83;14.55;;;1.00;99.90;;;;;;7377576;19;20026;-59
2023/12/04 08:40:22;;;;;;;19.88;12.95;;;1.00;99.90;;;;;;7376509;19;20014;-59
2023/12/04 08:42:48;;;;;;;22.17;14.45;;;1.00;99.90;;;;;;7377634;19;20482;-59
2023/12/04 08:45:14;;;;;;;22.00;14.77;;;1.00;99.90;;;;;;7378059;19;20015;-60
2023/12/04 08:47:40;;;;;;;19.50;12.35;;;1.00;99.90;;;;;;7375542;19;20466;-60
2023/12/04 08:50:07;;;;;;;19.30;12.30;;;1.00;99.90;;;;;;7376615;19;20023;-59
2023/12/04 08:52:37;;;;;;;18.73;12.18;;;1.10;99.90;;;;;;7376083;19;20674;-60
2023/12/04 08:55:07;;;;;;;20.10;12.82;;;1.10;99.90;;;;;;7370679;19;20136;-59
2023/12/04 08:57:33;;;;;;;21.17;12.23;;;1.10;99.90;;;;;;7377914;19;20015;-59
2023/12/04 09:00:03;;;;;;;22.02;12.68;;;1.10;99.90;;;;;;7378110;19;20554;-59
2023/12/04 09:02:30;;;;;;;16.35;11.52;;;1.20;99.90;;;;;;7375221;19;20446;-61
2023/12/04 09:04:58;;;;;;;18.92;13.25;;;1.20;99.90;;;;;;7377884;19;20034;-59
2023/12/04 09:07:25;;;;;;;18.58;12.18;;;1.20;99.90;;;;;;7373548;19;20035;-59
2023/12/04 09:09:51;;;;;;;19.10;12.38;;;1.30;99.90;;;;;;7376852;19;20022;-60
2023/12/04 09:12:17;;;;;;;16.45;11.88;;;1.30;99.90;;;;;;7375981;19;20025;-60
2023/12/04 09:14:43;;;;;;;17.77;11.43;;;1.30;99.90;;;;;;7376204;19;20019;-60
2023/12/04 09:17:10;;;;;;;17.63;11.90;;;1.30;99.90;;;;;;7375795;19;20056;-60
2023/12/04 09:19:38;;;;;;;19.13;12.45;;;1.40;99.90;;;;;;7376348;19;20117;-60
2023/12/04 09:22:06;;;;;;;16.33;11.60;;;1.40;99.90;;;;;;7378345;19;20018;-60
2023/12/04 09:24:33;;;;;;;16.58;11.48;;;1.50;99.90;;;;;;7375670;19;20026;-62
2023/12/04 09:27:19;;;;;;;17.95;13.27;;;1.50;99.90;;;;;;7374183;19;20018;-63
2023/12/04 09:29:45;;;;;;;16.55;11.70;;;1.50;99.90;;;;;;7377592;19;20022;-62
2023/12/04 09:32:12;;;;;;;14.07;10.02;;;1.60;99.90;;;;;;7377480;19;20029;-63
2023/12/04 09:34:38;;;;;;;17.10;11.90;;;1.60;99.90;;;;;;7368886;19;20049;-63
2023/12/04 09:37:05;;;;;;;15.93;11.48;;;1.60;99.90;;;;;;7373109;19;20792;-62
2023/12/04 09:39:31;;;;;;;16.38;10.70;;;1.70;99.90;;;;;;7375252;19;20010;-60
2023/12/04 09:41:59;;;;;;;16.77;10.60;;;1.70;99.90;;;;;;7374675;19;20702;-60
2023/12/04 09:44:28;;;;;;;16.80;11.35;;;1.70;99.90;;;;;;7371802;19;20640;-59
2023/12/04 09:46:55;;;;;;;14.02;9.25;;;1.70;99.90;;;;;;7375625;19;20074;-60
2023/12/04 09:49:22;;;;;;;13.60;10.38;;;1.80;99.90;;;;;;7372273;19;20060;-60
2023/12/04 09:51:48;;;;;;;15.93;10.90;;;1.80;99.90;;;;;;7374947;19;20033;-60
2023/12/04 09:54:17;;;;;;;15.65;10.52;;;1.90;99.90;;;;;;7373851;19;20021;-60
2023/12/04 09:56:43;;;;;;;16.00;10.95;;;1.90;99.90;;;;;;7375221;19;20078;-60
2023/12/04 09:59:13;;;;;;;14.77;11.15;;;1.90;99.90;;;;;;7372429;19;20022;-63
2023/12/04 10:01:40;;;;;;;14.98;10.73;;;1.90;99.90;;;;;;7374904;19;20062;-63
2023/12/04 10:04:10;;;;;;;15.27;11.25;;;2.00;99.90;;;;;;7369472;19;20378;-64
2023/12/04 10:06:38;;;;;;;14.13;9.48;;;2.00;99.90;;;;;;7370106;19;20039;-64
2023/12/04 10:09:04;;;;;;;13.38;9.25;;;2.10;99.90;;;;;;7370390;19;20030;-61
2023/12/04 10:11:42;;;;;;;13.10;9.90;;;2.00;99.90;;;;;;7371506;19;20018;-60
2023/12/04 10:14:17;;;;;;;13.02;9.50;;;2.10;99.90;;;;;;7372843;19;20022;-60
2023/12/04 10:16:43;;;;;;;13.23;9.73;;;2.20;99.90;;;;;;7369551;19;20047;-64
2023/12/04 10:19:22;;;;;;;13.32;9.73;;;2.20;99.90;;;;;;7372345;19;20069;-64
2023/12/04 10:21:50;;;;;;;13.88;9.98;;;2.20;99.90;;;;;;7372821;19;20026;-64
2023/12/04 10:24:35;;;;;;;11.43;8.82;;;2.30;99.90;;;;;;7373618;19;20094;-64
2023/12/04 10:27:06;;;;;;;14.27;10.15;;;2.30;99.90;;;;;;7373408;19;20035;-60
2023/12/04 10:29:45;;;;;;;13.00;8.88;;;2.40;99.90;;;;;;7370110;19;20029;-60
2023/12/04 10:32:12;;;;;;;15.77;9.88;;;2.40;99.90;;;;;;7372664;19;20028;-60
2023/12/04 10:34:42;;;;;;;13.32;9.40;;;2.40;99.90;;;;;;7370823;19;20019;-60
2023/12/04 10:37:10;;;;;;;14.10;9.77;;;2.40;99.90;;;;;;7374551;19;20023;-60
2023/12/04 10:39:47;;;;;;;13.00;8.95;;;2.40;99.90;;;;;;7370905;19;20022;-60
2023/12/04 10:42:32;;;;;;;13.18;9.30;;;2.50;99.90;;;;;;7374252;19;20493;-61
2023/12/04 10:44:59;;;;;;;14.23;10.07;;;2.50;99.90;;;;;;7370450;19;20027;-66
2023/12/04 10:47:32;;;;;;;12.98;9.40;;;2.50;99.90;;;;;;7372117;19;20399;-63
2023/12/04 10:49:59;;;;;;;12.63;8.65;;;2.50;99.90;;;;;;7369776;19;20035;-63
2023/12/04 10:52:27;;;;;;;13.43;9.10;;;2.50;99.90;;;;;;7371441;19;20022;-64
2023/12/04 10:54:53;;;;;;;12.45;8.75;;;2.50;99.90;;;;;;7371424;19;20119;-63
2023/12/04 10:57:28;;;;;;;11.35;8.23;;;2.60;99.90;;;;;;7370224;19;20017;-60
2023/12/04 11:00:02;;;;;;;13.45;8.75;;;2.50;99.90;;;;;;7370868;19;20022;-60
2023/12/04 11:02:32;;;;;;;14.05;9.02;;;2.50;99.90;;;;;;7367144;19;20029;-60
2023/12/04 11:05:21;;;;;;;13.07;8.85;;;2.50;99.90;;;;;;7370202;19;20117;-60
2023/12/04 11:07:52;;;;;;;11.48;8.15;;;2.50;99.90;;;;;;7370813;19;20490;-60
2023/12/04 11:10:24;;;;;;;12.93;9.57;;;2.50;99.90;;;;;;7372376;19;20025;-63
2023/12/04 11:13:21;;;;;;;12.02;9.20;;;2.40;99.90;;;;;;7370031;19;20019;-63
2023/12/04 11:15:50;;;;;;;12.00;9.50;;;2.40;99.90;;;;;;7368311;19;20090;-64
2023/12/04 11:18:19;;;;;;;13.10;8.57;;;2.40;99.90;;;;;;7372239;19;20336;-63
2023/12/04 11:20:52;;;;;;;12.13;8.68;;;2.40;99.90;;;;;;7377279;19;20018;-63
2023/12/04 11:23:20;;;;;;;10.60;8.02;;;2.50;99.90;;;;;;7377855;19;20026;-63
2023/12/04 11:25:47;;;;;;;12.80;8.18;;;2.40;99.90;;;;;;7374752;19;20392;-63
2023/12/04 11:28:16;;;;;;;11.10;8.07;;;2.40;99.90;;;;;;7379195;19;20018;-63
2023/12/04 11:30:43;;;;;;;12.88;9.05;;;2.40;99.90;;;;;;7378638;19;20650;-63
2023/12/04 11:33:11;;;;;;;11.95;8.38;;;2.50;99.90;;;;;;7376824;19;20772;-64
2023/12/04 11:35:39;;;;;;;11.35;8.27;;;2.50;99.90;;;;;;7372850;19;20105;-64
2023/12/04 11:38:07;;;;;;;11.82;8.82;;;2.60;99.90;;;;;;7375567;19;20412;-61
2023/12/04 11:40:34;;;;;;;10.93;7.22;;;2.70;99.90;;;;;;7375882;19;20033;-61
2023/12/04 11:43:01;;;;;;;12.02;9.07;;;2.80;99.90;;;;;;7377588;19;20678;-60
2023/12/04 11:45:32;;;;;;;12.85;7.85;;;2.80;99.90;;;;;;7374478;19;20034;-61
2023/12/04 11:47:59;;;;;;;10.35;8.05;;;2.90;99.90;;;;;;7376795;19;20048;-60
2023/12/04 11:50:25;;;;;;;10.95;7.88;;;2.90;99.90;;;;;;7379491;19;20390;-60
2023/12/04 11:52:53;;;;;;;10.70;8.45;;;3.00;99.90;;;;;;7375655;19;20026;-60
2023/12/04 11:55:23;;;;;;;12.88;8.30;;;3.00;99.90;;;;;;7377869;19;20039;-60
2023/12/04 11:57:51;;;;;;;10.85;8.27;;;3.10;99.90;;;;;;7378352;19;20081;-60
2023/12/04 12:00:18;;;;;;;11.98;8.65;;;3.00;99.90;;;;;;7377129;19;20051;-60
2023/12/04 12:02:54;;;;;;;11.10;7.75;;;3.10;99.90;;;;;;7376874;19;20499;-64
2023/12/04 12:05:22;;;;;;;12.68;8.48;;;3.20;99.90;;;;;;7380113;19;20018;-63
2023/12/04 12:07:49;;;;;;;10.93;7.72;;;3.20;99.90;;;;;;7378313;19;20015;-64
2023/12/04 12:10:16;;;;;;;12.45;8.68;;;3.20;99.90;;;;;;7378640;19;20023;-63
2023/12/04 12:12:43;;;;;;;13.32;8.65;;;3.20;99.90;;;;;;7375160;19;20053;-64
2023/12/04 12:15:10;;;;;;;12.43;8.95;;;3.20;99.90;;;;;;7376469;19;20045;-63
2023/12/04 12:17:44;;;;;;;13.88;9.35;;;3.30;99.90;;;;;;7375262;19;20019;-63
2023/12/04 12:20:14;;;;;;;12.40;8.68;;;3.30;99.90;;;;;;7379007;19;20038;-61
2023/12/04 12:22:43;;;;;;;11.40;7.72;;;3.40;99.90;;;;;;7378699;19;20029;-64
2023/12/04 12:25:13;;;;;;;11.82;7.68;;;3.40;99.90;;;;;;7378499;19;20022;-64
2023/12/04 12:27:40;;;;;;;12.65;8.63;;;3.40;99.90;;;;;;7377599;19;20022;-64
2023/12/04 12:30:07;;;;;;;12.85;8.50;;;3.40;99.90;;;;;;7374765;19;20317;-64
2023/12/04 12:32:35;;;;;;;12.20;8.90;;;3.40;99.90;;;;;;7375178;19;20120;-64
2023/12/04 12:35:11;;;;;;;15.45;8.45;;;3.30;99.90;;;;;;7375071;19;20014;-64
2023/12/04 12:37:39;;;;;;;12.43;8.85;;;3.20;99.90;;;;;;7379085;19;20039;-64
2023/12/04 12:40:28;;;;;;;10.13;8.23;;;3.20;99.90;;;;;;7374121;19;20057;-65
2023/12/04 12:43:05;;;;;;;11.13;7.88;;;3.10;99.90;;;;;;7377110;19;20018;-64